KAWM/AWM METAR and TAF weather

Enter ICAO airport designator
Station Type Date Time Source
KAWM METAR 2021/09/24 04:53 UTC NOAA

KAWM 240453Z AUTO 00000KT 10SM CLR 12/09 A3008 RMK AO2 SLP183 T01220094


Station Type Date Time Source
KAWM Decoded METAR 2021/09/24 04:53 UTC NOAA

WEST MEMPHIS MUNICIPAL AIRPORT, AR, United States (KAWM) 35-08N 090-14W
Sep 24, 2021 - 12:53 AM EDT / 2021.09.24 0453 UTC
Wind: Calm:0
Visibility: 10 mile(s):0
Sky conditions: clear
Temperature: 54.0 F (12.2 C)
Dew Point: 48.9 F (9.4 C)
Relative Humidity: 82%
Pressure (altimeter): 30.08 in. Hg (1018 hPa)
ob: KAWM 240453Z AUTO 00000KT 10SM CLR 12/09 A3008 RMK AO2 SLP183 T01220094
cycle: 5

Station Type Date Time Source
KAWM TAF UTC NOAA

Error!

Example: see airport list